DABC

Mohamed Boudiaf International Airport

Constantine, Algeria
TAF DABC 171100Z 1712/1812 34012KT 9999 SCT030TCU BKN033 TEMPO 1712/1721 5000 -TSRA SCT026CB PROB30 TEMPO 1714/1720 36015G25KT 3000 TSRA BKN026CB BECMG 1722/1724 26008KT
Issued Valid From Valid To
Aug-17 @ 11:00 UTC
(4 hours ago)
Aug-17 @ 12:00 UTC
(3 hours ago)
Aug-18 @ 12:00 UTC
(in 21 hours)
Aug-17 @ 12:00 to Aug-17 @ 22:00
TAF DABC 171100Z 1712/1812 34012KT 9999 SCT030TCU BKN033
Wind Visibility Clouds
340° at 12 knots 10,000+ meters
  • Scattered at 3,000' AGL
  • Broken at 3,300' AGL
Temporary Aug-17 @ 12:00 to Aug-17 @ 21:00
TEMPO 1712/1721 5000 -TSRA SCT026CB
Visibility Clouds Conditions
5,005 meters
  • Scattered at 2,600' AGL
  • Light Thunderstorm
  • Light Rain
Temporary  (Probability 30%) Aug-17 @ 14:00 to Aug-17 @ 20:00
PROB30 TEMPO 1714/1720 36015G25KT 3000 TSRA BKN026CB
Wind Visibility Clouds Conditions
360° at 15 knots
 Gusting to 25 knots
2,993 meters
  • Broken at 2,600' AGL
  • Thunderstorm
  • Rain
Becoming Aug-17 @ 22:00 to Aug-18 @ 12:00
BECMG 1722/1724 26008KT
Wind Visibility Clouds
260° at 8 knots 10,000+ meters
  • Scattered at 3,000' AGL
  • Broken at 3,300' AGL
TAF DABC 171100Z 1712/1812 34012KT 9999 SCT030TCU BKN033 TEMPO 1712/1721 5000 -TSRA SCT026CB PROB30 TEMPO 1714/1720 36015G25KT 3000 TSRA BKN026CB BECMG 1722/1724 26008KT
Issued Aug-17 @ 11:00 UTC
(4 hours ago)
Valid From Aug-17 @ 12:00 UTC
(3 hours ago)
Valid To Aug-18 @ 12:00 UTC
(in 21 hours)
Aug-17 @ 12:00 - Aug-17 @ 22:00
Wind Visibility
340° at 12 knots 10,000+ meters
Clouds
  • Scattered at 3,000' AGL
  • Broken at 3,300' AGL
Temporary Aug-17 @ 12:00 - Aug-17 @ 21:00
Clouds
  • Scattered at 2,600' AGL
Conditions
  • Light Thunderstorm
  • Light Rain
Probability 30% Temporary Aug-17 @ 14:00 - Aug-17 @ 20:00
Wind Visibility
360° at 15 knots
 Gusting to 25 knots
2,993 meters
Clouds
  • Broken at 2,600' AGL
Conditions
  • Thunderstorm
  • Rain
Becoming Aug-17 @ 22:00 - Aug-18 @ 12:00
Wind Visibility
260° at 8 knots 10,000+ meters
Clouds
  • Scattered at 3,000' AGL
  • Broken at 3,300' AGL